Articles

IAA

Share

Share

Trim Flying Club goes to the Aran Islands

Learn to fly at Trim Flying Club

Rainfall Radar Now

Atlantic Charts Pressure - Today

Atlantic Charts Rainfall - Today

 
 

Atlantic Charts Pressure - Tomorrow

Sunrise Sunset

Click for Dublin, Ireland Forecast

Aviation WX Dublin EIDW

[source: ADDS]
METAR
EIDW 161530Z 21014KT 9999 FEW022 SCT140 BKN200 15/06 Q1021 NOSIG =
TAF
TAF EIDW 161100Z 1612/1712 19011KT 9999 FEW017 TEMPO 1703/1708 5000 -DZ BR BKN010 =